Latest Coastal Weather Observations for Barrow Island

IDW60701

Issued at 12:32 am WST Tuesday 3 March 2015 (issued every 10 minutes, with the page automatically refreshed every 10 minutes)

About coastal observations | Map of coastal stations | Coastal observations for WA | Marine services | Other Formats
Station Details ID: 005094 Name: BARROW ISLAND AIRPORT Lat: -20.88 Lon: 115.41 Height: 6.4 m
Data from the previous 72 hours. | See also: Recent months at Barrow Island
Date/Time
WST
Temp

°C
Wind Pressure Rain
since 9am
mm
Weather Cloud Vis
km
Sea
Height
m
Swell
Dir
 
Speed
knots
Gust
knots
hPa Trend Height
m
Period
s
Dir
03/12:30am 26.9 WSW 12 15 1007.4 - 0.0 - - - - - - -
03/12:00am 27.2 WSW 13 16 1007.5 - 0.0 - - - - - - -
 
Date/Time
WST
Temp

°C
Wind Pressure Rain
since 9am
mm
Weather Cloud Vis
km
Sea
Height
m
Swell
Dir
 
Speed
knots
Gust
knots
hPa Trend Height
m
Period
s
Dir
02/11:30pm 27.2 WSW 13 17 1007.5 - 0.0 - - - - - - -
02/11:00pm 27.2 W 12 15 1007.4 - 0.0 - - - - - - -
02/10:30pm 27.3 W 12 16 1007.6 - 0.0 - - - - - - -
02/10:00pm 27.3 W 13 16 1007.5 - 0.0 - - - - - - -
02/09:30pm 27.5 W 13 17 1007.4 - 0.0 - - - - - - -
02/09:00pm 27.6 W 13 16 1007.1 - 0.0 - - - - - - -
02/08:30pm 27.7 W 13 17 1006.7 - 0.0 - - - - - - -
02/08:00pm 27.8 W 13 18 1006.5 - 0.0 - - - - - - -
02/07:30pm 27.8 W 14 18 1006.2 - 0.0 - - - - - - -
02/07:00pm 27.9 W 14 18 1005.7 - 0.0 - - - - - - -
02/06:30pm 28.5 W 14 17 1005.4 - 0.0 - - - - - - -
02/06:00pm 29.0 W 15 19 1005.0 - 0.0 - - - - - - -
02/05:30pm 29.7 W 16 20 1004.9 - 0.0 - - - - - - -
02/05:00pm 30.4 W 15 19 1004.8 - 0.0 - - - - - - -
02/04:30pm 31.0 W 14 17 1005.0 - 0.0 - - - - - - -
02/04:00pm 31.0 W 14 18 1005.0 - 0.0 - - - - - - -
02/03:30pm 31.3 WSW 13 17 1005.0 - 0.0 - - - - - - -
02/03:00pm 32.0 WSW 12 16 1005.2 - 0.0 - - - - - - -
02/02:30pm 31.5 SW 10 14 1005.6 - 0.0 - - - - - - -
02/02:00pm 31.0 SSW 11 13 1006.1 - 0.0 - - - - - - -
02/01:30pm 30.6 SSW 10 12 1006.4 - 0.0 - - - - - - -
02/01:00pm 30.9 SSW 8 10 1006.7 - 0.0 - - - - - - -
02/12:30pm 30.3 SSW 9 11 1006.9 - 0.0 - - - - - - -
02/12:00pm 30.6 SSW 9 11 1007.4 - 0.0 - - - - - - -
02/11:30am 30.4 S 8 11 1007.5 - 0.0 - - - - - - -
02/11:00am 30.3 SSW 9 10 1007.9 - 0.0 - - - - - - -
02/10:30am 30.0 S 9 10 1008.2 - 0.0 - - - - - - -
02/10:00am 29.7 S 9 11 1008.2 - 0.0 - - - - - - -
02/09:30am 29.3 S 9 11 1008.1 - 0.0 - - - - - - -
02/09:00am 28.2 SSW 10 13 1007.9 - 0.0 - - - - - - -
02/08:30am 28.3 SW 10 13 1008.0 - 0.0 - - - - - - -
02/08:00am 27.8 SW 11 13 1007.7 - 0.0 - - - - - - -
02/07:30am 27.5 SW 10 12 1007.6 - 0.0 - - - - - - -
02/07:00am 26.7 SW 9 11 1007.3 - 0.0 - - - - - - -
02/06:30am 26.0 SW 9 11 1007.0 - 0.0 - - - - - - -
02/06:00am 26.1 SW 10 12 1007.1 - 0.0 - - - - - - -
02/05:30am 26.0 SW 9 11 1006.9 - 0.0 - - - - - - -
02/05:00am 26.2 SW 10 12 1006.6 - 0.0 - - - - - - -
02/04:30am 26.3 SW 10 13 1006.7 - 0.0 - - - - - - -
02/04:00am 26.3 SW 10 13 1006.7 - 0.0 - - - - - - -
02/03:30am 26.4 SW 10 13 1006.7 - 0.0 - - - - - - -
02/03:00am 26.4 SW 10 12 1007.0 - 0.0 - - - - - - -
02/02:30am 26.5 WSW 8 11 1007.1 - 0.0 - - - - - - -
02/02:00am 26.7 WSW 11 14 1007.3 - 0.0 - - - - - - -
02/01:30am 26.6 W 9 11 1007.4 - 0.0 - - - - - - -
02/01:00am 27.0 WSW 10 13 1007.6 - 0.0 - - - - - - -
02/12:30am 27.0 WSW 11 14 1007.6 - 0.0 - - - - - - -
02/12:00am 26.9 W 9 13 1007.6 - 0.0 - - - - - - -
 
Date/Time
WST
Temp

°C
Wind Pressure Rain
since 9am
mm
Weather Cloud Vis
km
Sea
Height
m
Swell
Dir
 
Speed
knots
Gust
knots
hPa Trend Height
m
Period
s
Dir
01/11:30pm 27.0 W 10 13 1007.7 - 0.0 - - - - - - -
01/11:00pm 27.1 W 10 13 1008.2 - 0.0 - - - - - - -
01/10:30pm 27.2 W 9 11 1008.0 - 0.0 - - - - - - -
01/10:00pm 27.1 W 10 12 1007.7 - 0.0 - - - - - - -
01/09:30pm 27.2 W 10 13 1007.6 - 0.0 - - - - - - -
01/09:00pm 27.2 W 10 12 1007.4 - 0.0 - - - - - - -
01/08:30pm 27.3 W 9 11 1007.1 - 0.0 - - - - - - -
01/08:00pm 27.3 W 7 9 1007.0 - 0.0 - - - - - - -
01/07:30pm 27.5 W 9 10 1006.6 - 0.0 - - - - - - -
01/07:00pm 27.9 W 9 12 1006.2 - 0.0 - - - - - - -
01/06:30pm 28.4 W 11 14 1006.0 - 0.0 - - - - - - -
01/06:00pm 28.8 W 11 15 1005.6 - 0.0 - - - - - - -
01/05:30pm 28.9 WSW 13 17 1005.6 - 0.0 - - - - - - -
01/05:00pm 29.3 WSW 14 19 1005.6 - 0.0 - - - - - - -
01/04:30pm 30.0 WSW 14 19 1005.6 - 0.0 - - - - - - -
01/04:00pm 30.4 WSW 13 17 1005.8 - 0.0 - - - - - - -
01/03:30pm 30.7 WSW 15 20 1006.0 - 0.0 - - - - - - -
01/03:00pm 31.3 WSW 14 19 1006.0 - 0.0 - - - - - - -
01/02:30pm 30.9 WSW 14 19 1006.3 - 0.0 - - - - - - -
01/02:00pm 31.4 SW 15 21 1006.7 - 0.0 - - - - - - -
01/01:30pm 31.0 SW 14 18 1006.9 - 0.0 - - - - - - -
01/01:00pm 31.1 WSW 14 20 1007.3 - 0.0 - - - - - - -
01/12:30pm 31.4 WSW 14 18 1007.5 - 0.0 - - - - - - -
01/12:00pm 30.7 SW 14 18 1007.8 - 0.0 - - - - - - -
01/11:30am 30.8 WSW 14 19 1008.1 - 0.0 - - - - - - -
01/11:00am 30.6 WSW 15 18 1008.1 - 0.0 - - - - - - -
01/10:30am 30.6 WSW 13 18 1008.4 - 0.0 - - - - - - -
01/10:00am 30.1 WSW 13 17 1008.5 - 0.0 - - - - - - -
01/09:30am 29.7 WSW 13 17 1008.5 - 0.0 - - - - - - -
01/09:00am 29.7 W 12 16 1008.5 - 0.0 - - - - - - -
01/08:30am 29.2 W 13 17 1008.4 - 0.0 - - - - - - -
01/08:00am 29.1 W 14 17 1008.0 - 0.0 - - - - - - -
01/07:30am 28.5 W 14 17 1007.9 - 0.0 - - - - - - -
01/07:00am 27.6 W 13 16 1007.5 - 0.0 - - - - - - -
01/06:30am 26.5 W 10 12 1007.2 - 0.0 - - - - - - -
01/06:00am 26.4 W 10 13 1007.1 - 0.0 - - - - - - -
01/05:30am 26.3 W 9 11 1006.7 - 0.0 - - - - - - -
01/05:00am 26.3 WNW 10 11 1006.5 - 0.0 - - - - - - -
01/04:30am 26.1 W 9 11 1006.3 - 0.0 - - - - - - -
01/04:00am 26.1 W 9 11 1006.3 - 0.0 - - - - - - -
01/03:30am 26.1 W 8 10 1006.1 - 0.0 - - - - - - -
01/03:00am 26.2 W 8 9 1006.0 - 0.0 - - - - - - -
01/02:30am 26.3 W 9 12 1006.1 - 0.0 - - - - - - -
01/02:00am 26.5 W 10 12 1006.4 - 0.0 - - - - - - -
01/01:30am 26.7 W 9 11 1006.8 - 0.0 - - - - - - -
01/01:00am 26.8 W 10 13 1007.2 - 0.0 - - - - - - -
01/12:30am 26.8 W 10 13 1007.2 - 0.0 - - - - - - -
01/12:00am 27.0 WSW 12 15 1007.1 - 0.0 - - - - - - -
 
Date/Time
WST
Temp

°C
Wind Pressure Rain
since 9am
mm
Weather Cloud Vis
km
Sea
Height
m
Swell
Dir
 
Speed
knots
Gust
knots
hPa Trend Height
m
Period
s
Dir
28/11:30pm 27.2 WSW 13 15 1007.2 - 0.0 - - - - - - -
28/11:00pm 27.2 WSW 12 15 1007.9 - 0.0 - - - - - - -
28/10:30pm 27.3 WSW 12 16 1008.4 - 0.0 - - - - - - -
28/10:00pm 27.3 SW 13 16 1008.4 - 0.0 - - - - - - -
28/09:30pm 27.6 WSW 14 17 1008.0 - 0.0 - - - - - - -
28/09:00pm 27.5 WSW 15 18 1007.6 - 0.0 - - - - - - -
28/08:30pm 27.4 WSW 16 19 1007.1 - 0.0 - - - - - - -
28/08:00pm 27.5 W 16 20 1006.7 - 0.0 - - - - - - -
28/07:30pm 27.5 W 17 21 1006.2 - 0.0 - - - - - - -
28/07:00pm 27.6 W 15 21 1005.8 - 0.0 - - - - - - -
28/06:30pm 28.2 W 17 21 1005.5 - 0.0 - - - - - - -
28/06:00pm 28.7 W 18 23 1005.2 - 0.0 - - - - - - -
28/05:30pm 29.6 W 18 23 1005.1 - 0.0 - - - - - - -
28/05:00pm 29.6 W 18 25 1005.1 - 0.0 - - - - - - -
28/04:30pm 30.5 W 17 22 1005.2 - 0.0 - - - - - - -
28/04:00pm 30.7 W 17 22 1005.5 - 0.0 - - - - - - -
28/03:30pm 30.9 W 16 21 1005.6 - 0.0 - - - - - - -
28/03:00pm 30.6 W 16 20 1005.9 - 0.0 - - - - - - -
28/02:30pm 30.7 WSW 15 20 1006.2 - 0.0 - - - - - - -
28/02:00pm 31.1 WSW 16 21 1006.4 - 0.0 - - - - - - -
28/01:30pm 31.1 WSW 16 23 1006.6 - 0.0 - - - - - - -
28/01:00pm 31.3 WSW 14 19 1006.8 - 0.0 - - - - - - -
28/12:30pm 30.6 WSW 14 19 1007.1 - 0.0 - - - - - - -
28/12:00pm 30.8 WSW 12 16 1007.4 - 0.0 - - - - - - -
28/11:30am 31.1 W 10 15 1007.6 - 0.0 - - - - - - -
28/11:00am 31.2 W 13 15 1007.7 - 0.0 - - - - - - -
28/10:30am 29.9 SSW 12 13 1007.9 - 0.0 - - - - - - -
28/10:00am 29.5 SSW 11 13 1008.1 - 0.0 - - - - - - -
28/09:30am 29.1 SW 11 14 1008.2 - 0.0 - - - - - - -
28/09:00am 29.1 SW 10 13 1007.9 - 0.0 - - - - - - -
28/08:30am 28.5 SW 12 14 1007.9 - 0.0 - - - - - - -
28/08:00am 28.2 WSW 12 16 1007.8 - 0.0 - - - - - - -
28/07:30am 27.9 SW 12 15 1007.6 - 0.0 - - - - - - -
28/07:00am 27.3 WSW 11 13 1007.3 - 0.0 - - - - - - -
28/06:30am 27.1 WSW 12 14 1007.0 - 0.0 - - - - - - -
28/06:00am 27.2 SW 12 14 1006.8 - 0.0 - - - - - - -
28/05:30am 27.0 SW 11 15 1006.7 - 0.0 - - - - - - -
28/05:00am 27.1 SW 13 15 1006.5 - 0.0 - - - - - - -
28/04:30am 27.2 SW 12 15 1006.2 - 0.0 - - - - - - -
28/04:00am 27.2 WSW 12 16 1006.2 - 0.0 - - - - - - -
28/03:30am 27.2 WSW 12 15 1006.2 - 0.0 - - - - - - -
28/03:00am 27.2 WSW 11 14 1006.0 - 0.0 - - - - - - -
28/02:30am 27.2 WSW 11 14 1006.2 - 0.0 - - - - - - -
28/02:00am 27.3 WSW 11 15 1006.3 - 0.0 - - - - - - -
28/01:30am 27.1 WSW 11 14 1006.4 - 0.0 - - - - - - -
28/01:00am 27.3 WSW 12 15 1006.8 - 0.0 - - - - - - -

Other Formats:

Comma delimited format used in spreadsheet applications
http://www.bom.gov.au/fwo/IDW60701/IDW60701.95304.axf

JavaScript Object Notation format (JSON) in row-major order
http://www.bom.gov.au/fwo/IDW60701/IDW60701.95304.json